createdAt,value
2017-10-01T00:00:26.196Z,93.35
2017-10-01T00:02:53.796Z,93.36
2017-10-01T00:05:21.425Z,93.59
2017-10-01T00:07:48.971Z,93.74
2017-10-01T00:10:16.578Z,94.02
2017-10-01T00:12:44.167Z,94.08
2017-10-01T00:15:12.217Z,94.26
2017-10-01T00:17:40.215Z,94.27
2017-10-01T00:20:08.892Z,94.52
2017-10-01T00:22:36.433Z,94.58
2017-10-01T00:25:05.920Z,94.48
2017-10-01T00:27:33.543Z,94.33
2017-10-01T00:30:01.105Z,94.27
2017-10-01T00:32:30.027Z,93.96
2017-10-01T00:34:57.670Z,94.36
2017-10-01T00:37:25.286Z,94.48
2017-10-01T00:39:52.878Z,94.37
2017-10-01T00:42:20.950Z,93.94
2017-10-01T00:44:48.943Z,94.07
2017-10-01T00:47:16.613Z,93.91
2017-10-01T00:49:44.201Z,93.86
2017-10-01T00:52:11.798Z,93.86
2017-10-01T00:54:40.243Z,93.48
2017-10-01T00:57:08.789Z,93.15
2017-10-01T00:59:37.097Z,93.28
2017-10-01T01:02:05.916Z,93.28
2017-10-01T01:04:33.507Z,92.86
2017-10-01T01:07:01.080Z,93.00
2017-10-01T01:09:28.630Z,93.12
2017-10-01T01:11:56.211Z,93.05
2017-10-01T01:14:23.776Z,92.83
2017-10-01T01:16:52.089Z,92.97
2017-10-01T01:19:19.640Z,92.94
2017-10-01T01:21:48.676Z,92.90
2017-10-01T01:24:17.794Z,92.76
2017-10-01T01:26:46.735Z,92.76
2017-10-01T01:29:14.334Z,92.85
2017-10-01T01:31:41.940Z,92.89
2017-10-01T01:34:09.542Z,92.85
2017-10-01T01:36:37.120Z,92.99
2017-10-01T01:39:05.016Z,93.04
2017-10-01T01:41:32.575Z,93.29
2017-10-01T01:44:00.175Z,93.21
2017-10-01T01:46:27.753Z,93.05
2017-10-01T01:48:55.319Z,92.94
2017-10-01T01:51:22.897Z,92.93
2017-10-01T01:53:50.896Z,92.83
2017-10-01T01:56:18.483Z,92.76
2017-10-01T01:58:46.616Z,93.05
2017-10-01T02:01:18.114Z,93.16
2017-10-01T02:03:45.674Z,93.44
2017-10-01T02:06:13.488Z,93.49
2017-10-01T02:08:41.044Z,93.51
2017-10-01T02:11:08.573Z,93.68
2017-10-01T02:13:36.495Z,93.82
2017-10-01T02:16:04.053Z,94.00
2017-10-01T02:18:31.664Z,93.82
2017-10-01T02:20:59.218Z,94.07
2017-10-01T02:23:27.172Z,94.09
2017-10-01T02:25:54.754Z,93.90
2017-10-01T02:28:25.067Z,93.86
2017-10-01T02:30:52.632Z,93.47
2017-10-01T02:33:20.225Z,93.81
2017-10-01T02:35:48.216Z,93.47
2017-10-01T02:38:16.637Z,93.49
2017-10-01T02:40:44.192Z,93.29
2017-10-01T02:43:12.713Z,93.67
2017-10-01T02:45:41.674Z,93.85
2017-10-01T02:48:09.210Z,93.99
2017-10-01T02:50:36.777Z,93.80
2017-10-01T02:53:04.344Z,93.51
2017-10-01T02:55:34.825Z,93.47
2017-10-01T02:58:02.363Z,93.41
2017-10-01T03:00:29.946Z,93.99
2017-10-01T03:02:57.925Z,93.94
2017-10-01T03:05:25.787Z,93.56
2017-10-01T03:07:53.394Z,93.67
2017-10-01T03:10:20.966Z,93.42
2017-10-01T03:12:48.532Z,93.53
2017-10-01T03:15:16.492Z,92.76
2017-10-01T03:17:44.120Z,93.22
2017-10-01T03:20:11.690Z,93.09
2017-10-01T03:22:39.263Z,92.85
2017-10-01T03:25:06.834Z,93.49
2017-10-01T03:27:34.420Z,93.20
2017-10-01T03:30:03.091Z,93.16
2017-10-01T03:32:31.263Z,93.78
2017-10-01T03:34:59.274Z,93.61
2017-10-01T03:37:26.849Z,93.76
2017-10-01T03:39:54.463Z,93.93
2017-10-01T03:42:22.020Z,93.35
2017-10-01T03:44:49.598Z,93.45
2017-10-01T03:47:17.151Z,93.66
2017-10-01T03:49:44.718Z,93.63
2017-10-01T03:52:12.279Z,93.78
2017-10-01T03:54:40.670Z,93.75
2017-10-01T03:57:09.281Z,93.36
2017-10-01T03:59:37.246Z,93.86
2017-10-01T04:02:05.395Z,93.25
2017-10-01T04:04:33.306Z,93.52
2017-10-01T04:07:01.876Z,93.49
2017-10-01T04:09:30.896Z,94.19
2017-10-01T04:11:58.481Z,93.87
2017-10-01T04:14:26.063Z,93.91
2017-10-01T04:16:53.636Z,93.98
2017-10-01T04:19:21.901Z,93.88
2017-10-01T04:21:49.875Z,94.01
2017-10-01T04:24:18.323Z,94.20
2017-10-01T04:26:46.976Z,94.10
2017-10-01T04:29:15.811Z,94.07
2017-10-01T04:31:43.395Z,94.03
2017-10-01T04:34:10.974Z,94.28
2017-10-01T04:36:38.532Z,94.10
2017-10-01T04:39:07.567Z,93.49
2017-10-01T04:41:36.143Z,93.68
2017-10-01T04:44:03.762Z,93.48
2017-10-01T04:46:31.687Z,93.32
2017-10-01T04:48:59.277Z,93.66
2017-10-01T04:51:26.859Z,93.62
2017-10-01T04:53:54.454Z,93.43
2017-10-01T04:56:23.180Z,93.66
2017-10-01T04:58:50.728Z,93.41
2017-10-01T05:01:19.696Z,93.64
2017-10-01T05:03:48.693Z,93.52
2017-10-01T05:06:16.278Z,93.48
2017-10-01T05:08:44.237Z,93.53
2017-10-01T05:11:11.829Z,93.91
2017-10-01T05:13:39.400Z,94.17
2017-10-01T05:16:06.987Z,93.84
2017-10-01T05:18:35.034Z,93.56
2017-10-01T05:21:02.591Z,93.76
2017-10-01T05:23:31.569Z,93.50
2017-10-01T05:25:59.147Z,94.12
2017-10-01T05:28:27.647Z,93.85
2017-10-01T05:30:55.224Z,94.03
2017-10-01T05:33:22.780Z,93.88
2017-10-01T05:35:50.349Z,93.83
2017-10-01T05:38:18.272Z,94.26
2017-10-01T05:40:45.840Z,94.20
2017-10-01T05:43:15.694Z,94.28
2017-10-01T05:45:43.305Z,94.32
2017-10-01T05:48:10.867Z,94.32
2017-10-01T05:50:38.444Z,94.39
2017-10-01T05:53:05.998Z,94.09
2017-10-01T05:55:33.610Z,94.51
2017-10-01T05:58:01.199Z,94.57
2017-10-01T06:00:29.165Z,94.47
2017-10-01T06:02:57.090Z,94.46
2017-10-01T06:05:24.668Z,94.56
2017-10-01T06:07:52.694Z,94.05
2017-10-01T06:10:20.521Z,94.45
2017-10-01T06:12:48.070Z,94.16
2017-10-01T06:15:15.627Z,94.22
2017-10-01T06:17:43.210Z,94.20
2017-10-01T06:20:12.578Z,93.97
2017-10-01T06:22:40.620Z,93.93
2017-10-01T06:25:08.179Z,94.45
2017-10-01T06:27:36.544Z,94.26
2017-10-01T06:30:04.573Z,94.30
2017-10-01T06:32:32.157Z,94.17
2017-10-01T06:35:00.247Z,94.11
2017-10-01T06:37:27.826Z,94.34
2017-10-01T06:39:58.291Z,94.46
2017-10-01T06:42:26.336Z,94.51
2017-10-01T06:44:53.923Z,94.50
2017-10-01T06:47:22.215Z,94.60
2017-10-01T06:49:50.536Z,94.61
2017-10-01T06:52:18.527Z,94.34
2017-10-01T06:54:47.028Z,94.13
2017-10-01T06:57:15.033Z,94.09
2017-10-01T06:59:42.688Z,94.67
2017-10-01T07:02:10.297Z,94.22
2017-10-01T07:04:44.720Z,94.68
2017-10-01T07:07:12.310Z,94.64
2017-10-01T07:09:41.282Z,94.25
2017-10-01T07:12:10.699Z,93.94
2017-10-01T07:14:38.269Z,93.68
2017-10-01T07:17:05.928Z,92.85
2017-10-01T07:19:33.575Z,93.55
2017-10-01T07:22:01.180Z,93.40
2017-10-01T07:24:28.757Z,93.27
2017-10-01T07:26:56.346Z,93.43
2017-10-01T07:29:23.940Z,93.79
2017-10-01T07:31:51.566Z,93.28
2017-10-01T07:34:19.507Z,93.55
2017-10-01T07:36:47.085Z,93.50
2017-10-01T07:39:14.649Z,92.91
2017-10-01T07:41:43.518Z,93.25
2017-10-01T07:44:11.125Z,92.98
2017-10-01T07:46:38.721Z,93.33
2017-10-01T07:49:06.372Z,93.32
2017-10-01T07:51:33.970Z,93.52
2017-10-01T07:54:01.598Z,92.76
2017-10-01T07:56:30.060Z,92.96
2017-10-01T07:58:57.785Z,92.79
2017-10-01T08:01:25.723Z,92.55
2017-10-01T08:03:55.921Z,93.25
2017-10-01T08:06:23.566Z,92.52
2017-10-01T08:08:51.600Z,92.81
2017-10-01T08:11:20.505Z,91.09
2017-10-01T08:13:48.301Z,92.01
2017-10-01T08:16:15.896Z,92.24
2017-10-01T08:18:43.452Z,92.41
2017-10-01T08:21:11.077Z,91.88
2017-10-01T08:23:38.636Z,91.85
2017-10-01T08:26:06.273Z,91.73
2017-10-01T08:28:34.414Z,92.37
2017-10-01T08:31:01.988Z,91.93
2017-10-01T08:33:29.636Z,90.18
2017-10-01T08:35:57.820Z,90.35
2017-10-01T08:38:25.425Z,89.77
2017-10-01T08:40:53.020Z,90.51
2017-10-01T08:43:23.012Z,90.98
2017-10-01T08:45:50.633Z,90.31
2017-10-01T08:48:20.673Z,91.23
2017-10-01T08:50:48.264Z,90.36
2017-10-01T08:53:16.204Z,89.88
2017-10-01T08:55:43.783Z,90.04
2017-10-01T08:58:11.362Z,90.42
2017-10-01T09:00:39.566Z,89.21
2017-10-01T09:03:07.539Z,88.98
2017-10-01T09:05:35.152Z,88.05
2017-10-01T09:08:02.758Z,87.14
2017-10-01T09:10:32.017Z,87.73
2017-10-01T09:13:01.216Z,87.88
2017-10-01T09:15:31.854Z,87.68
2017-10-01T09:17:59.552Z,88.63
2017-10-01T09:20:29.571Z,89.28
2017-10-01T09:22:59.284Z,88.47
2017-10-01T09:25:27.422Z,87.30
2017-10-01T09:27:55.028Z,86.71
2017-10-01T09:30:24.484Z,86.51
2017-10-01T09:32:52.497Z,87.01
2017-10-01T09:35:21.513Z,87.03
2017-10-01T09:37:49.541Z,87.59
2017-10-01T09:40:17.152Z,87.40
2017-10-01T09:42:47.627Z,87.81
2017-10-01T09:45:15.226Z,86.56
2017-10-01T09:47:42.889Z,88.02
2017-10-01T09:50:10.494Z,88.18
2017-10-01T09:52:38.094Z,88.15
2017-10-01T09:55:07.033Z,86.73
2017-10-01T09:57:34.649Z,86.11
2017-10-01T10:00:02.391Z,83.48
2017-10-01T10:02:30.389Z,82.89
2017-10-01T10:04:58.129Z,83.92
2017-10-01T10:07:25.700Z,84.67
2017-10-01T10:09:53.290Z,83.75
2017-10-01T10:12:20.874Z,83.61
2017-10-01T10:14:48.914Z,83.82
2017-10-01T10:17:17.276Z,82.47
2017-10-01T10:19:46.928Z,83.47
2017-10-01T10:22:14.944Z,83.25
2017-10-01T10:24:45.424Z,81.12
2017-10-01T10:27:14.791Z,81.63
2017-10-01T10:29:42.801Z,81.42
2017-10-01T10:32:10.447Z,84.66
2017-10-01T10:34:38.039Z,84.54
2017-10-01T10:37:05.626Z,83.49
2017-10-01T10:39:33.217Z,83.70
2017-10-01T10:42:00.765Z,83.46
2017-10-01T10:44:28.351Z,83.19
2017-10-01T10:46:55.926Z,83.45
2017-10-01T10:49:24.170Z,84.05
2017-10-01T10:51:51.745Z,83.96
2017-10-01T10:54:19.972Z,80.04
2017-10-01T10:56:47.960Z,80.48
2017-10-01T10:59:15.814Z,80.57
2017-10-01T11:01:43.495Z,79.21
2017-10-01T11:04:11.054Z,79.67
2017-10-01T11:06:39.062Z,77.26
2017-10-01T11:09:07.202Z,78.41
2017-10-01T11:11:34.855Z,79.19
2017-10-01T11:14:02.415Z,77.01
2017-10-01T11:16:32.093Z,77.94
2017-10-01T11:19:00.922Z,78.30
2017-10-01T11:21:28.533Z,78.45
2017-10-01T11:23:56.157Z,78.20
2017-10-01T11:26:24.056Z,75.59
2017-10-01T11:28:54.451Z,78.13
2017-10-01T11:31:24.008Z,75.92
2017-10-01T11:33:54.739Z,75.69
2017-10-01T11:36:24.117Z,78.33
2017-10-01T11:38:51.715Z,78.80
2017-10-01T11:41:20.599Z,77.93
2017-10-01T11:43:48.944Z,77.15
2017-10-01T11:46:16.555Z,75.80
2017-10-01T11:48:44.189Z,77.09
2017-10-01T11:51:14.412Z,75.05
2017-10-01T11:53:44.401Z,76.39
2017-10-01T11:56:17.411Z,77.07
2017-10-01T11:58:48.495Z,75.34
2017-10-01T12:01:16.621Z,75.20
2017-10-01T12:03:45.602Z,76.80
2017-10-01T12:06:15.373Z,75.97
2017-10-01T12:08:43.339Z,75.79
2017-10-01T12:11:11.336Z,77.52
2017-10-01T12:13:39.022Z,76.24
2017-10-01T12:16:11.549Z,77.89
2017-10-01T12:18:39.148Z,79.44
2017-10-01T12:21:07.600Z,79.85
2017-10-01T12:23:35.162Z,79.01
2017-10-01T12:26:03.117Z,77.94
2017-10-01T12:28:30.728Z,77.69
2017-10-01T12:30:58.429Z,76.57
2017-10-01T12:33:27.492Z,74.81
2017-10-01T12:35:56.679Z,75.25
2017-10-01T12:38:24.545Z,75.01
2017-10-01T12:40:52.796Z,74.99
2017-10-01T12:43:20.400Z,76.18
2017-10-01T12:45:49.811Z,73.98
2017-10-01T12:48:17.407Z,74.22
2017-10-01T12:50:45.000Z,75.11
2017-10-01T12:53:12.565Z,74.67
2017-10-01T12:55:40.995Z,75.97
2017-10-01T12:58:14.103Z,75.58
2017-10-01T13:00:41.724Z,75.23
2017-10-01T13:03:09.297Z,74.86
2017-10-01T13:05:38.373Z,74.42
2017-10-01T13:08:09.532Z,74.38
2017-10-01T13:10:37.126Z,75.03
2017-10-01T13:13:04.723Z,74.73
2017-10-01T13:15:32.350Z,76.27
2017-10-01T13:18:05.046Z,75.43
2017-10-01T13:20:32.707Z,76.61
2017-10-01T13:23:00.325Z,76.10
2017-10-01T13:25:32.478Z,76.73
2017-10-01T13:28:00.800Z,74.97
2017-10-01T13:30:29.822Z,75.37
2017-10-01T13:32:57.795Z,75.77
2017-10-01T13:35:25.389Z,75.83
2017-10-01T13:37:52.999Z,75.07
2017-10-01T13:40:22.545Z,74.84
2017-10-01T13:42:50.135Z,74.86
2017-10-01T13:45:19.350Z,75.64
2017-10-01T13:47:50.716Z,73.81
2017-10-01T13:50:18.963Z,74.30
2017-10-01T13:52:46.548Z,75.48
2017-10-01T13:55:14.164Z,76.22
2017-10-01T13:57:42.773Z,75.59
2017-10-01T14:00:11.861Z,76.09
2017-10-01T14:02:39.446Z,75.68
2017-10-01T14:05:14.833Z,75.39
2017-10-01T14:07:42.383Z,76.27
2017-10-01T14:10:18.208Z,75.98
2017-10-01T14:12:47.259Z,77.13
2017-10-01T14:15:18.756Z,76.78
2017-10-01T14:17:49.525Z,73.90
2017-10-01T14:20:18.005Z,75.30
2017-10-01T14:22:48.218Z,75.40
2017-10-01T14:25:15.804Z,75.44
2017-10-01T14:27:43.373Z,74.24
2017-10-01T14:30:10.948Z,72.31
2017-10-01T14:32:40.889Z,73.28
2017-10-01T14:35:08.476Z,73.45
2017-10-01T14:37:36.134Z,74.23
2017-10-01T14:40:03.750Z,74.66
2017-10-01T14:42:31.535Z,74.94
2017-10-01T14:44:59.562Z,75.67
2017-10-01T14:47:29.025Z,75.28
2017-10-01T14:49:56.629Z,75.31
2017-10-01T14:52:24.881Z,75.87
2017-10-01T14:54:52.506Z,75.59
2017-10-01T14:57:20.220Z,75.86
2017-10-01T14:59:48.154Z,76.01
2017-10-01T15:02:17.002Z,75.06
2017-10-01T15:04:44.573Z,76.02
2017-10-01T15:07:12.169Z,76.16
2017-10-01T15:09:40.932Z,75.57
2017-10-01T15:12:08.507Z,75.95
2017-10-01T15:14:36.090Z,75.63
2017-10-01T15:17:03.710Z,76.17
2017-10-01T15:19:32.113Z,75.71
2017-10-01T15:22:00.184Z,76.03
2017-10-01T15:24:27.721Z,75.07
2017-10-01T15:26:56.292Z,74.88
2017-10-01T15:29:24.096Z,75.53
2017-10-01T15:31:51.696Z,74.79
2017-10-01T15:34:19.307Z,75.37
2017-10-01T15:36:46.879Z,76.35
2017-10-01T15:39:14.496Z,76.23
2017-10-01T15:41:43.662Z,75.73
2017-10-01T15:44:11.571Z,75.21
2017-10-01T15:46:39.274Z,75.43
2017-10-01T15:49:07.431Z,74.43
2017-10-01T15:51:37.289Z,74.98
2017-10-01T15:54:04.868Z,75.05
2017-10-01T15:56:32.488Z,75.72
2017-10-01T15:59:01.718Z,76.14
2017-10-01T16:01:29.316Z,76.42
2017-10-01T16:03:56.918Z,76.87
2017-10-01T16:06:24.517Z,77.11
2017-10-01T16:08:52.110Z,77.31
2017-10-01T16:11:20.155Z,77.27
2017-10-01T16:13:47.714Z,76.97
2017-10-01T16:16:15.325Z,76.67
2017-10-01T16:18:45.155Z,77.14
2017-10-01T16:21:12.801Z,77.39
2017-10-01T16:23:41.739Z,76.90
2017-10-01T16:26:09.713Z,76.36
2017-10-01T16:28:37.283Z,76.61
2017-10-01T16:31:07.868Z,76.91
2017-10-01T16:33:35.504Z,77.23
2017-10-01T16:36:04.308Z,77.34
2017-10-01T16:38:33.097Z,77.72
2017-10-01T16:41:01.150Z,77.69
2017-10-01T16:43:28.744Z,77.91
2017-10-01T16:46:00.872Z,78.22
2017-10-01T16:48:32.077Z,78.78
2017-10-01T16:51:00.142Z,78.89
2017-10-01T16:53:28.986Z,79.98
2017-10-01T16:55:57.158Z,80.25
2017-10-01T16:58:24.741Z,81.01
2017-10-01T17:00:52.349Z,81.12
2017-10-01T17:03:19.939Z,80.41
2017-10-01T17:05:47.566Z,80.08
2017-10-01T17:08:15.549Z,80.30
2017-10-01T17:10:44.783Z,80.36
2017-10-01T17:13:13.800Z,80.85
2017-10-01T17:15:41.372Z,81.67
2017-10-01T17:18:11.893Z,82.21
2017-10-01T17:20:39.808Z,82.22
2017-10-01T17:23:07.415Z,82.22
2017-10-01T17:25:35.022Z,82.95
2017-10-01T17:28:02.640Z,83.87
2017-10-01T17:30:30.237Z,84.81
2017-10-01T17:32:58.665Z,85.10
2017-10-01T17:35:26.247Z,84.76
2017-10-01T17:37:53.863Z,85.11
2017-10-01T17:40:21.479Z,85.00
2017-10-01T17:42:49.093Z,85.24
2017-10-01T17:45:17.056Z,85.40
2017-10-01T17:47:45.013Z,85.46
2017-10-01T17:50:12.642Z,85.36
2017-10-01T17:52:43.141Z,85.39
2017-10-01T17:55:11.204Z,86.05
2017-10-01T17:57:39.258Z,86.38
2017-10-01T18:00:06.880Z,86.65
2017-10-01T18:02:34.460Z,86.85
2017-10-01T18:05:05.197Z,87.12
2017-10-01T18:07:37.074Z,87.26
2017-10-01T18:10:08.273Z,87.35
2017-10-01T18:12:35.845Z,87.21
2017-10-01T18:15:04.852Z,87.16
2017-10-01T18:17:32.477Z,87.40
2017-10-01T18:20:03.085Z,87.45
2017-10-01T18:22:33.007Z,87.62
2017-10-01T18:25:02.133Z,87.88
2017-10-01T18:27:31.376Z,87.75
2017-10-01T18:30:00.096Z,87.75
2017-10-01T18:32:29.399Z,87.99
2017-10-01T18:34:56.983Z,87.92
2017-10-01T18:37:25.619Z,87.97
2017-10-01T18:39:53.703Z,87.97
2017-10-01T18:42:21.350Z,88.00
2017-10-01T18:44:49.296Z,88.30
2017-10-01T18:47:21.511Z,88.54
2017-10-01T18:49:50.663Z,88.71
2017-10-01T18:52:18.269Z,88.73
2017-10-01T18:54:45.926Z,88.71
2017-10-01T18:57:14.552Z,88.46
2017-10-01T18:59:42.189Z,88.40
2017-10-01T19:02:11.099Z,88.74
2017-10-01T19:04:39.460Z,88.52
2017-10-01T19:07:09.919Z,88.41
2017-10-01T19:09:38.577Z,88.50
2017-10-01T19:12:06.198Z,88.94
2017-10-01T19:14:34.926Z,88.95
2017-10-01T19:17:02.538Z,89.01
2017-10-01T19:19:30.121Z,88.82
2017-10-01T19:21:57.990Z,88.98
2017-10-01T19:24:27.651Z,88.62
2017-10-01T19:26:58.198Z,88.59
2017-10-01T19:29:27.173Z,88.49
2017-10-01T19:31:54.794Z,88.52
2017-10-01T19:34:25.177Z,88.26
2017-10-01T19:36:55.668Z,88.47
2017-10-01T19:39:23.295Z,88.99
2017-10-01T19:41:54.595Z,89.39
2017-10-01T19:44:32.768Z,90.35
2017-10-01T19:47:00.564Z,90.57
2017-10-01T19:49:31.466Z,90.08
2017-10-01T19:51:59.938Z,89.41
2017-10-01T19:54:30.410Z,89.43
2017-10-01T19:56:59.360Z,89.53
2017-10-01T19:59:26.944Z,89.32
2017-10-01T20:01:56.591Z,89.30
2017-10-01T20:04:26.595Z,89.22
2017-10-01T20:06:55.420Z,89.03
2017-10-01T20:09:23.416Z,88.85
2017-10-01T20:11:51.013Z,89.17
2017-10-01T20:14:20.307Z,89.18
2017-10-01T20:16:51.252Z,89.00
2017-10-01T20:19:18.889Z,88.79
2017-10-01T20:21:46.468Z,88.65
2017-10-01T20:24:14.094Z,88.63
2017-10-01T20:26:41.685Z,88.81
2017-10-01T20:29:15.201Z,88.98
2017-10-01T20:31:42.772Z,88.94
2017-10-01T20:34:10.382Z,88.91
2017-10-01T20:36:39.463Z,89.05
2017-10-01T20:39:08.472Z,88.83
2017-10-01T20:41:39.124Z,88.70
2017-10-01T20:44:06.754Z,89.01
2017-10-01T20:46:34.939Z,88.83
2017-10-01T20:49:02.498Z,88.95
2017-10-01T20:51:30.105Z,89.31
2017-10-01T20:53:59.177Z,89.50
2017-10-01T20:56:27.118Z,89.72
2017-10-01T20:58:58.429Z,89.64
2017-10-01T21:01:26.050Z,89.25
2017-10-01T21:03:53.691Z,89.14
2017-10-01T21:06:21.285Z,89.23
2017-10-01T21:08:48.894Z,89.14
2017-10-01T21:11:17.302Z,89.21
2017-10-01T21:13:46.214Z,89.44
2017-10-01T21:16:14.263Z,89.48
2017-10-01T21:18:41.860Z,89.74
2017-10-01T21:21:09.427Z,89.71
2017-10-01T21:23:37.416Z,89.60
2017-10-01T21:26:04.969Z,89.46
2017-10-01T21:28:33.390Z,89.88
2017-10-01T21:31:01.103Z,90.77
2017-10-01T21:33:29.107Z,90.82
2017-10-01T21:35:56.704Z,90.81
2017-10-01T21:38:26.141Z,90.92
2017-10-01T21:40:54.762Z,90.73
2017-10-01T21:43:22.378Z,90.88
2017-10-01T21:45:51.363Z,90.63
2017-10-01T21:48:19.098Z,90.38
2017-10-01T21:50:47.074Z,90.10
2017-10-01T21:53:14.997Z,89.98
2017-10-01T21:55:42.985Z,89.69
2017-10-01T21:58:10.597Z,89.32
2017-10-01T22:00:38.164Z,89.31
2017-10-01T22:03:05.789Z,89.19
2017-10-01T22:05:33.366Z,89.13
2017-10-01T22:08:01.318Z,90.10
2017-10-01T22:10:30.749Z,90.25
2017-10-01T22:12:58.305Z,90.37
2017-10-01T22:15:26.359Z,90.55
2017-10-01T22:17:54.390Z,90.54
2017-10-01T22:20:22.516Z,90.83
2017-10-01T22:22:50.101Z,91.05
2017-10-01T22:25:17.761Z,91.29
2017-10-01T22:27:45.342Z,91.45
2017-10-01T22:30:14.395Z,91.60
2017-10-01T22:32:41.957Z,91.46
2017-10-01T22:35:10.067Z,91.72
2017-10-01T22:37:39.147Z,91.96
2017-10-01T22:40:06.751Z,92.12
2017-10-01T22:42:34.330Z,91.81
2017-10-01T22:45:02.957Z,91.44
2017-10-01T22:47:31.930Z,91.58
2017-10-01T22:50:00.030Z,91.52
2017-10-01T22:52:27.996Z,91.68
2017-10-01T22:54:55.559Z,91.75
2017-10-01T22:57:24.922Z,91.53
2017-10-01T22:59:52.524Z,91.32
2017-10-01T23:02:20.122Z,91.39
2017-10-01T23:04:47.701Z,91.18
2017-10-01T23:07:15.655Z,91.08
2017-10-01T23:09:43.922Z,91.40
2017-10-01T23:12:11.523Z,91.27
2017-10-01T23:14:39.857Z,91.54
2017-10-01T23:17:07.417Z,91.21
2017-10-01T23:19:35.026Z,91.16
2017-10-01T23:22:03.989Z,91.23
2017-10-01T23:24:31.604Z,91.18
2017-10-01T23:27:00.061Z,91.17
2017-10-01T23:29:28.082Z,91.14
2017-10-01T23:31:56.205Z,91.36
2017-10-01T23:34:23.798Z,91.73
2017-10-01T23:36:52.963Z,92.43
2017-10-01T23:39:20.578Z,92.20
2017-10-01T23:41:48.546Z,92.04
2017-10-01T23:44:16.112Z,91.71
2017-10-01T23:46:45.030Z,91.90
2017-10-01T23:49:12.601Z,92.33
2017-10-01T23:51:40.952Z,92.52
2017-10-01T23:54:08.860Z,92.73
2017-10-01T23:56:36.457Z,92.73
2017-10-01T23:59:04.064Z,92.89
